sensor_id;sensor_type;location;lat;lon;timestamp;P1;durP1;ratioP1;P2;durP2;ratioP2
14141;SDS011;7151;52.246;4.820;2022-11-15T00:01:08;22.33;;;11.23;;
14141;SDS011;7151;52.246;4.820;2022-11-15T00:03:38;25.80;;;12.87;;
14141;SDS011;7151;52.246;4.820;2022-11-15T00:06:04;20.80;;;12.13;;
14141;SDS011;7151;52.246;4.820;2022-11-15T00:08:30;23.37;;;12.80;;
14141;SDS011;7151;52.246;4.820;2022-11-15T00:10:57;22.70;;;12.03;;
14141;SDS011;7151;52.246;4.820;2022-11-15T00:13:24;20.37;;;11.93;;
14141;SDS011;7151;52.246;4.820;2022-11-15T00:15:50;20.83;;;11.97;;
14141;SDS011;7151;52.246;4.820;2022-11-15T00:18:16;21.73;;;12.27;;
14141;SDS011;7151;52.246;4.820;2022-11-15T00:20:42;23.20;;;11.97;;
14141;SDS011;7151;52.246;4.820;2022-11-15T00:23:08;20.43;;;11.33;;
14141;SDS011;7151;52.246;4.820;2022-11-15T00:25:34;25.03;;;13.20;;
14141;SDS011;7151;52.246;4.820;2022-11-15T00:28:00;22.90;;;11.90;;
14141;SDS011;7151;52.246;4.820;2022-11-15T00:30:26;20.33;;;11.87;;
14141;SDS011;7151;52.246;4.820;2022-11-15T00:32:52;23.97;;;12.27;;
14141;SDS011;7151;52.246;4.820;2022-11-15T00:35:18;23.03;;;11.70;;
14141;SDS011;7151;52.246;4.820;2022-11-15T00:37:44;22.80;;;11.53;;
14141;SDS011;7151;52.246;4.820;2022-11-15T00:40:10;24.50;;;11.17;;
14141;SDS011;7151;52.246;4.820;2022-11-15T00:42:37;20.47;;;11.10;;
14141;SDS011;7151;52.246;4.820;2022-11-15T00:45:03;21.13;;;11.63;;
14141;SDS011;7151;52.246;4.820;2022-11-15T00:47:29;20.23;;;11.20;;
14141;SDS011;7151;52.246;4.820;2022-11-15T00:49:54;20.27;;;10.77;;
14141;SDS011;7151;52.246;4.820;2022-11-15T00:52:20;23.33;;;12.13;;
14141;SDS011;7151;52.246;4.820;2022-11-15T00:54:46;23.40;;;11.13;;
14141;SDS011;7151;52.246;4.820;2022-11-15T00:57:11;19.30;;;12.00;;
14141;SDS011;7151;52.246;4.820;2022-11-15T00:59:37;17.87;;;10.47;;
14141;SDS011;7151;52.246;4.820;2022-11-15T01:02:02;20.13;;;11.73;;
14141;SDS011;7151;52.246;4.820;2022-11-15T01:04:28;20.40;;;10.97;;
14141;SDS011;7151;52.246;4.820;2022-11-15T01:06:53;22.93;;;11.00;;
14141;SDS011;7151;52.246;4.820;2022-11-15T01:09:19;19.73;;;11.53;;
14141;SDS011;7151;52.246;4.820;2022-11-15T01:11:45;22.63;;;12.13;;
14141;SDS011;7151;52.246;4.820;2022-11-15T01:14:11;21.93;;;11.70;;
14141;SDS011;7151;52.246;4.820;2022-11-15T01:16:36;26.00;;;11.00;;
14141;SDS011;7151;52.246;4.820;2022-11-15T01:19:02;17.67;;;10.83;;
14141;SDS011;7151;52.246;4.820;2022-11-15T01:21:28;19.23;;;11.97;;
14141;SDS011;7151;52.246;4.820;2022-11-15T01:23:54;20.53;;;11.03;;
14141;SDS011;7151;52.246;4.820;2022-11-15T01:26:20;21.80;;;11.60;;
14141;SDS011;7151;52.246;4.820;2022-11-15T01:28:47;26.93;;;12.37;;
14141;SDS011;7151;52.246;4.820;2022-11-15T01:31:14;20.40;;;11.40;;
14141;SDS011;7151;52.246;4.820;2022-11-15T01:33:41;18.80;;;12.30;;
14141;SDS011;7151;52.246;4.820;2022-11-15T01:36:09;19.50;;;11.77;;
14141;SDS011;7151;52.246;4.820;2022-11-15T01:38:37;19.80;;;10.97;;
14141;SDS011;7151;52.246;4.820;2022-11-15T01:41:03;25.00;;;12.27;;
14141;SDS011;7151;52.246;4.820;2022-11-15T01:43:31;26.33;;;12.90;;
14141;SDS011;7151;52.246;4.820;2022-11-15T01:46:01;23.73;;;11.63;;
14141;SDS011;7151;52.246;4.820;2022-11-15T01:48:32;21.63;;;11.33;;
14141;SDS011;7151;52.246;4.820;2022-11-15T01:51:06;24.43;;;11.73;;
14141;SDS011;7151;52.246;4.820;2022-11-15T01:53:35;26.07;;;11.87;;
14141;SDS011;7151;52.246;4.820;2022-11-15T01:56:03;22.57;;;12.33;;
14141;SDS011;7151;52.246;4.820;2022-11-15T01:58:31;24.53;;;12.77;;
14141;SDS011;7151;52.246;4.820;2022-11-15T02:00:58;26.63;;;12.90;;
14141;SDS011;7151;52.246;4.820;2022-11-15T02:03:27;25.17;;;11.10;;
14141;SDS011;7151;52.246;4.820;2022-11-15T02:06:06;18.60;;;10.37;;
14141;SDS011;7151;52.246;4.820;2022-11-15T02:08:33;28.93;;;12.37;;
14141;SDS011;7151;52.246;4.820;2022-11-15T02:10:58;27.23;;;12.77;;
14141;SDS011;7151;52.246;4.820;2022-11-15T02:13:24;24.90;;;12.37;;
14141;SDS011;7151;52.246;4.820;2022-11-15T02:15:53;26.97;;;13.33;;
14141;SDS011;7151;52.246;4.820;2022-11-15T02:18:49;26.63;;;12.93;;
14141;SDS011;7151;52.246;4.820;2022-11-15T02:21:32;26.40;;;12.90;;
14141;SDS011;7151;52.246;4.820;2022-11-15T02:37:25;25.40;;;12.50;;
14141;SDS011;7151;52.246;4.820;2022-11-15T02:39:58;27.33;;;12.93;;
14141;SDS011;7151;52.246;4.820;2022-11-15T02:42:45;28.83;;;12.47;;
14141;SDS011;7151;52.246;4.820;2022-11-15T02:45:38;25.33;;;13.23;;
14141;SDS011;7151;52.246;4.820;2022-11-15T02:48:06;30.17;;;14.67;;
14141;SDS011;7151;52.246;4.820;2022-11-15T02:50:34;28.13;;;14.10;;
14141;SDS011;7151;52.246;4.820;2022-11-15T02:52:59;29.13;;;13.13;;
14141;SDS011;7151;52.246;4.820;2022-11-15T02:55:29;25.40;;;12.67;;
14141;SDS011;7151;52.246;4.820;2022-11-15T03:00:58;27.33;;;13.50;;
14141;SDS011;7151;52.246;4.820;2022-11-15T03:03:45;22.53;;;13.23;;
14141;SDS011;7151;52.246;4.820;2022-11-15T03:06:37;28.57;;;13.30;;
14141;SDS011;7151;52.246;4.820;2022-11-15T03:09:07;24.83;;;13.53;;
14141;SDS011;7151;52.246;4.820;2022-11-15T03:11:40;26.97;;;14.83;;
14141;SDS011;7151;52.246;4.820;2022-11-15T03:14:22;28.50;;;14.37;;
14141;SDS011;7151;52.246;4.820;2022-11-15T03:17:02;25.07;;;12.93;;
14141;SDS011;7151;52.246;4.820;2022-11-15T03:19:53;26.57;;;13.63;;
14141;SDS011;7151;52.246;4.820;2022-11-15T03:22:21;27.27;;;12.97;;
14141;SDS011;7151;52.246;4.820;2022-11-15T03:24:53;24.63;;;12.93;;
14141;SDS011;7151;52.246;4.820;2022-11-15T03:27:23;23.83;;;12.57;;
14141;SDS011;7151;52.246;4.820;2022-11-15T03:29:53;29.53;;;13.20;;
14141;SDS011;7151;52.246;4.820;2022-11-15T03:32:28;27.33;;;13.77;;
14141;SDS011;7151;52.246;4.820;2022-11-15T03:37:59;25.23;;;14.33;;
14141;SDS011;7151;52.246;4.820;2022-11-15T03:40:38;29.27;;;14.63;;
14141;SDS011;7151;52.246;4.820;2022-11-15T03:45:56;24.90;;;13.17;;
14141;SDS011;7151;52.246;4.820;2022-11-15T03:48:27;22.97;;;13.23;;
14141;SDS011;7151;52.246;4.820;2022-11-15T03:51:03;24.83;;;12.13;;
14141;SDS011;7151;52.246;4.820;2022-11-15T03:53:29;28.03;;;13.67;;
14141;SDS011;7151;52.246;4.820;2022-11-15T03:55:56;25.20;;;12.23;;
14141;SDS011;7151;52.246;4.820;2022-11-15T03:58:22;20.40;;;11.97;;
14141;SDS011;7151;52.246;4.820;2022-11-15T04:00:48;19.80;;;12.37;;
14141;SDS011;7151;52.246;4.820;2022-11-15T04:03:13;23.67;;;12.37;;
14141;SDS011;7151;52.246;4.820;2022-11-15T04:05:39;23.13;;;11.67;;
14141;SDS011;7151;52.246;4.820;2022-11-15T04:08:04;20.10;;;12.60;;
14141;SDS011;7151;52.246;4.820;2022-11-15T04:10:30;19.37;;;11.53;;
14141;SDS011;7151;52.246;4.820;2022-11-15T04:12:56;19.20;;;12.00;;
14141;SDS011;7151;52.246;4.820;2022-11-15T04:15:22;17.83;;;11.63;;
14141;SDS011;7151;52.246;4.820;2022-11-15T04:20:19;17.50;;;11.93;;
14141;SDS011;7151;52.246;4.820;2022-11-15T04:23:21;19.07;;;11.50;;
14141;SDS011;7151;52.246;4.820;2022-11-15T04:26:10;18.07;;;11.40;;
14141;SDS011;7151;52.246;4.820;2022-11-15T04:28:38;22.50;;;10.93;;
14141;SDS011;7151;52.246;4.820;2022-11-15T04:31:22;16.13;;;11.07;;
14141;SDS011;7151;52.246;4.820;2022-11-15T04:33:47;22.07;;;10.73;;
14141;SDS011;7151;52.246;4.820;2022-11-15T04:36:13;17.23;;;12.53;;
14141;SDS011;7151;52.246;4.820;2022-11-15T04:38:57;21.07;;;10.73;;
14141;SDS011;7151;52.246;4.820;2022-11-15T04:41:23;16.83;;;11.07;;
14141;SDS011;7151;52.246;4.820;2022-11-15T04:43:48;16.63;;;9.90;;
14141;SDS011;7151;52.246;4.820;2022-11-15T04:46:14;18.10;;;9.80;;
14141;SDS011;7151;52.246;4.820;2022-11-15T04:48:39;13.87;;;9.50;;
14141;SDS011;7151;52.246;4.820;2022-11-15T04:51:05;15.07;;;9.70;;
14141;SDS011;7151;52.246;4.820;2022-11-15T04:53:30;15.37;;;10.57;;
14141;SDS011;7151;52.246;4.820;2022-11-15T04:55:56;16.40;;;10.97;;
14141;SDS011;7151;52.246;4.820;2022-11-15T04:58:21;13.97;;;9.17;;
14141;SDS011;7151;52.246;4.820;2022-11-15T05:00:47;16.87;;;10.43;;
14141;SDS011;7151;52.246;4.820;2022-11-15T05:03:12;16.80;;;10.03;;
14141;SDS011;7151;52.246;4.820;2022-11-15T05:05:57;15.03;;;9.27;;
14141;SDS011;7151;52.246;4.820;2022-11-15T05:08:23;20.20;;;9.67;;
14141;SDS011;7151;52.246;4.820;2022-11-15T05:10:49;17.37;;;8.97;;
14141;SDS011;7151;52.246;4.820;2022-11-15T05:13:14;13.97;;;9.53;;
14141;SDS011;7151;52.246;4.820;2022-11-15T05:15:40;14.23;;;9.63;;
14141;SDS011;7151;52.246;4.820;2022-11-15T05:18:05;16.90;;;9.77;;
14141;SDS011;7151;52.246;4.820;2022-11-15T05:20:31;14.97;;;9.37;;
14141;SDS011;7151;52.246;4.820;2022-11-15T05:22:57;15.60;;;8.63;;
14141;SDS011;7151;52.246;4.820;2022-11-15T05:25:22;12.67;;;8.77;;
14141;SDS011;7151;52.246;4.820;2022-11-15T05:27:48;13.20;;;8.93;;
14141;SDS011;7151;52.246;4.820;2022-11-15T05:30:14;9.50;;;7.93;;
14141;SDS011;7151;52.246;4.820;2022-11-15T05:32:41;11.60;;;8.47;;
14141;SDS011;7151;52.246;4.820;2022-11-15T05:35:06;13.27;;;8.63;;
14141;SDS011;7151;52.246;4.820;2022-11-15T05:37:36;14.47;;;8.87;;
14141;SDS011;7151;52.246;4.820;2022-11-15T05:40:02;15.47;;;8.67;;
14141;SDS011;7151;52.246;4.820;2022-11-15T05:42:28;10.23;;;8.17;;
14141;SDS011;7151;52.246;4.820;2022-11-15T05:44:54;12.33;;;7.93;;
14141;SDS011;7151;52.246;4.820;2022-11-15T05:47:23;11.30;;;7.57;;
14141;SDS011;7151;52.246;4.820;2022-11-15T05:49:52;12.57;;;8.10;;
14141;SDS011;7151;52.246;4.820;2022-11-15T05:52:20;12.73;;;7.87;;
14141;SDS011;7151;52.246;4.820;2022-11-15T05:54:50;11.00;;;7.43;;
14141;SDS011;7151;52.246;4.820;2022-11-15T05:57:17;12.07;;;7.67;;
14141;SDS011;7151;52.246;4.820;2022-11-15T05:59:43;11.90;;;8.03;;
14141;SDS011;7151;52.246;4.820;2022-11-15T06:02:09;10.00;;;7.10;;
14141;SDS011;7151;52.246;4.820;2022-11-15T06:04:35;15.40;;;8.07;;
14141;SDS011;7151;52.246;4.820;2022-11-15T06:07:01;14.40;;;7.30;;
14141;SDS011;7151;52.246;4.820;2022-11-15T06:09:26;10.90;;;7.10;;
14141;SDS011;7151;52.246;4.820;2022-11-15T06:11:52;9.77;;;6.90;;
14141;SDS011;7151;52.246;4.820;2022-11-15T06:14:17;13.43;;;6.63;;
14141;SDS011;7151;52.246;4.820;2022-11-15T06:16:43;11.20;;;7.20;;
14141;SDS011;7151;52.246;4.820;2022-11-15T06:19:09;12.07;;;7.60;;
14141;SDS011;7151;52.246;4.820;2022-11-15T06:21:34;12.57;;;7.70;;
14141;SDS011;7151;52.246;4.820;2022-11-15T06:24:00;7.63;;;6.07;;
14141;SDS011;7151;52.246;4.820;2022-11-15T06:26:26;10.03;;;6.90;;
14141;SDS011;7151;52.246;4.820;2022-11-15T06:28:52;10.43;;;7.30;;
14141;SDS011;7151;52.246;4.820;2022-11-15T06:31:17;9.90;;;6.90;;
14141;SDS011;7151;52.246;4.820;2022-11-15T06:33:43;11.30;;;7.50;;
14141;SDS011;7151;52.246;4.820;2022-11-15T06:36:09;12.90;;;8.20;;
14141;SDS011;7151;52.246;4.820;2022-11-15T06:38:41;12.13;;;7.13;;
14141;SDS011;7151;52.246;4.820;2022-11-15T06:41:08;11.60;;;7.07;;
14141;SDS011;7151;52.246;4.820;2022-11-15T06:43:34;8.83;;;6.53;;
14141;SDS011;7151;52.246;4.820;2022-11-15T06:46:01;11.27;;;7.03;;
14141;SDS011;7151;52.246;4.820;2022-11-15T06:48:28;10.77;;;7.43;;
14141;SDS011;7151;52.246;4.820;2022-11-15T06:50:55;12.93;;;7.70;;
14141;SDS011;7151;52.246;4.820;2022-11-15T06:53:21;11.83;;;7.40;;
14141;SDS011;7151;52.246;4.820;2022-11-15T06:55:48;9.70;;;6.73;;
14141;SDS011;7151;52.246;4.820;2022-11-15T06:58:13;11.90;;;7.13;;
14141;SDS011;7151;52.246;4.820;2022-11-15T07:00:39;11.27;;;6.70;;
14141;SDS011;7151;52.246;4.820;2022-11-15T07:03:05;12.33;;;7.73;;
14141;SDS011;7151;52.246;4.820;2022-11-15T07:05:31;13.47;;;6.97;;
14141;SDS011;7151;52.246;4.820;2022-11-15T07:07:57;10.13;;;6.63;;
14141;SDS011;7151;52.246;4.820;2022-11-15T07:10:23;10.13;;;6.37;;
14141;SDS011;7151;52.246;4.820;2022-11-15T07:12:53;10.20;;;7.00;;
14141;SDS011;7151;52.246;4.820;2022-11-15T07:15:20;13.00;;;5.83;;
14141;SDS011;7151;52.246;4.820;2022-11-15T07:17:50;15.40;;;6.70;;
14141;SDS011;7151;52.246;4.820;2022-11-15T07:20:16;9.97;;;6.70;;
14141;SDS011;7151;52.246;4.820;2022-11-15T07:22:42;10.47;;;5.37;;
14141;SDS011;7151;52.246;4.820;2022-11-15T07:25:10;7.40;;;5.20;;
14141;SDS011;7151;52.246;4.820;2022-11-15T07:27:36;9.53;;;6.20;;
14141;SDS011;7151;52.246;4.820;2022-11-15T07:30:01;12.23;;;6.60;;
14141;SDS011;7151;52.246;4.820;2022-11-15T07:32:28;9.47;;;5.30;;
14141;SDS011;7151;52.246;4.820;2022-11-15T07:34:53;6.80;;;5.30;;
14141;SDS011;7151;52.246;4.820;2022-11-15T07:37:19;11.00;;;5.40;;
14141;SDS011;7151;52.246;4.820;2022-11-15T07:39:44;8.70;;;5.77;;
14141;SDS011;7151;52.246;4.820;2022-11-15T07:42:10;6.43;;;4.87;;
14141;SDS011;7151;52.246;4.820;2022-11-15T07:44:54;8.03;;;4.07;;
14141;SDS011;7151;52.246;4.820;2022-11-15T07:47:20;6.37;;;4.00;;
14141;SDS011;7151;52.246;4.820;2022-11-15T07:49:46;6.77;;;4.40;;
14141;SDS011;7151;52.246;4.820;2022-11-15T07:52:12;6.93;;;4.93;;
14141;SDS011;7151;52.246;4.820;2022-11-15T07:54:38;10.87;;;5.47;;
14141;SDS011;7151;52.246;4.820;2022-11-15T07:57:04;8.17;;;5.60;;
14141;SDS011;7151;52.246;4.820;2022-11-15T07:59:30;14.17;;;4.80;;
14141;SDS011;7151;52.246;4.820;2022-11-15T08:01:56;7.97;;;5.03;;
14141;SDS011;7151;52.246;4.820;2022-11-15T08:04:22;8.37;;;4.77;;
14141;SDS011;7151;52.246;4.820;2022-11-15T08:06:47;7.47;;;5.20;;
14141;SDS011;7151;52.246;4.820;2022-11-15T08:09:13;7.20;;;4.80;;
14141;SDS011;7151;52.246;4.820;2022-11-15T08:11:38;6.23;;;5.13;;
14141;SDS011;7151;52.246;4.820;2022-11-15T08:14:04;9.83;;;5.47;;
14141;SDS011;7151;52.246;4.820;2022-11-15T08:16:29;8.07;;;5.63;;
14141;SDS011;7151;52.246;4.820;2022-11-15T08:18:55;10.73;;;6.00;;
14141;SDS011;7151;52.246;4.820;2022-11-15T08:21:21;12.37;;;6.10;;
14141;SDS011;7151;52.246;4.820;2022-11-15T08:23:47;8.27;;;5.17;;
14141;SDS011;7151;52.246;4.820;2022-11-15T08:26:13;9.33;;;5.87;;
14141;SDS011;7151;52.246;4.820;2022-11-15T08:28:39;7.97;;;5.27;;
14141;SDS011;7151;52.246;4.820;2022-11-15T08:31:05;11.03;;;5.20;;
14141;SDS011;7151;52.246;4.820;2022-11-15T08:33:31;12.67;;;6.37;;
14141;SDS011;7151;52.246;4.820;2022-11-15T08:35:58;6.97;;;5.10;;
14141;SDS011;7151;52.246;4.820;2022-11-15T08:38:25;9.50;;;5.13;;
14141;SDS011;7151;52.246;4.820;2022-11-15T08:40:52;9.17;;;5.97;;
14141;SDS011;7151;52.246;4.820;2022-11-15T08:43:23;8.20;;;5.03;;
14141;SDS011;7151;52.246;4.820;2022-11-15T08:45:48;6.93;;;5.13;;
14141;SDS011;7151;52.246;4.820;2022-11-15T08:48:14;9.67;;;4.83;;
14141;SDS011;7151;52.246;4.820;2022-11-15T08:50:40;5.97;;;4.27;;
14141;SDS011;7151;52.246;4.820;2022-11-15T08:53:06;8.30;;;4.60;;
14141;SDS011;7151;52.246;4.820;2022-11-15T08:55:35;7.47;;;4.50;;
14141;SDS011;7151;52.246;4.820;2022-11-15T08:58:02;6.93;;;4.50;;
14141;SDS011;7151;52.246;4.820;2022-11-15T09:00:27;6.50;;;4.47;;
14141;SDS011;7151;52.246;4.820;2022-11-15T09:02:54;10.73;;;4.77;;
14141;SDS011;7151;52.246;4.820;2022-11-15T09:05:19;7.27;;;4.83;;
14141;SDS011;7151;52.246;4.820;2022-11-15T09:07:45;6.80;;;4.60;;
14141;SDS011;7151;52.246;4.820;2022-11-15T09:10:10;8.03;;;3.33;;
14141;SDS011;7151;52.246;4.820;2022-11-15T09:12:36;5.87;;;3.87;;
14141;SDS011;7151;52.246;4.820;2022-11-15T09:15:02;8.10;;;3.77;;
14141;SDS011;7151;52.246;4.820;2022-11-15T09:17:28;6.90;;;3.90;;
14141;SDS011;7151;52.246;4.820;2022-11-15T09:19:54;6.60;;;3.60;;
14141;SDS011;7151;52.246;4.820;2022-11-15T09:22:20;6.07;;;3.47;;
14141;SDS011;7151;52.246;4.820;2022-11-15T09:24:46;5.63;;;3.33;;
14141;SDS011;7151;52.246;4.820;2022-11-15T09:27:11;5.10;;;3.80;;
14141;SDS011;7151;52.246;4.820;2022-11-15T09:29:38;7.20;;;3.87;;
14141;SDS011;7151;52.246;4.820;2022-11-15T09:32:03;5.77;;;3.33;;
14141;SDS011;7151;52.246;4.820;2022-11-15T09:34:29;5.33;;;3.33;;
14141;SDS011;7151;52.246;4.820;2022-11-15T09:36:55;9.47;;;3.93;;
14141;SDS011;7151;52.246;4.820;2022-11-15T09:39:21;6.80;;;3.00;;
14141;SDS011;7151;52.246;4.820;2022-11-15T09:50:00;6.03;;;2.80;;
14141;SDS011;7151;52.246;4.820;2022-11-15T09:52:33;7.73;;;4.20;;
14141;SDS011;7151;52.246;4.820;2022-11-15T09:55:02;6.47;;;3.90;;
14141;SDS011;7151;52.246;4.820;2022-11-15T09:57:31;5.40;;;3.97;;
14141;SDS011;7151;52.246;4.820;2022-11-15T10:03:08;4.43;;;2.90;;
14141;SDS011;7151;52.246;4.820;2022-11-15T10:05:43;3.93;;;2.80;;
14141;SDS011;7151;52.246;4.820;2022-11-15T10:11:01;4.50;;;2.90;;
14141;SDS011;7151;52.246;4.820;2022-11-15T10:13:33;4.37;;;2.50;;
14141;SDS011;7151;52.246;4.820;2022-11-15T10:21:17;3.53;;;2.50;;
14141;SDS011;7151;52.246;4.820;2022-11-15T10:23:47;5.40;;;2.73;;
14141;SDS011;7151;52.246;4.820;2022-11-15T10:26:14;2.93;;;2.27;;
14141;SDS011;7151;52.246;4.820;2022-11-15T10:28:41;6.30;;;2.57;;
14141;SDS011;7151;52.246;4.820;2022-11-15T10:31:21;6.10;;;2.63;;
14141;SDS011;7151;52.246;4.820;2022-11-15T10:33:51;3.97;;;2.00;;
14141;SDS011;7151;52.246;4.820;2022-11-15T10:36:24;3.60;;;2.47;;
14141;SDS011;7151;52.246;4.820;2022-11-15T10:46:47;3.53;;;2.60;;
14141;SDS011;7151;52.246;4.820;2022-11-15T10:49:29;4.73;;;2.10;;
14141;SDS011;7151;52.246;4.820;2022-11-15T10:52:19;3.37;;;2.23;;
14141;SDS011;7151;52.246;4.820;2022-11-15T10:54:48;5.43;;;2.47;;
14141;SDS011;7151;52.246;4.820;2022-11-15T10:57:35;3.57;;;2.23;;
14141;SDS011;7151;52.246;4.820;2022-11-15T11:05:07;3.63;;;2.00;;
14141;SDS011;7151;52.246;4.820;2022-11-15T11:08:01;4.30;;;2.00;;
14141;SDS011;7151;52.246;4.820;2022-11-15T11:10:27;4.90;;;2.30;;
14141;SDS011;7151;52.246;4.820;2022-11-15T11:12:53;3.93;;;2.00;;
14141;SDS011;7151;52.246;4.820;2022-11-15T11:15:19;4.40;;;1.83;;
14141;SDS011;7151;52.246;4.820;2022-11-15T11:18:19;2.83;;;2.00;;
14141;SDS011;7151;52.246;4.820;2022-11-15T11:20:58;3.27;;;1.40;;
14141;SDS011;7151;52.246;4.820;2022-11-15T11:23:44;4.13;;;1.73;;
14141;SDS011;7151;52.246;4.820;2022-11-15T11:26:24;2.67;;;1.60;;
14141;SDS011;7151;52.246;4.820;2022-11-15T11:29:16;2.43;;;1.80;;
14141;SDS011;7151;52.246;4.820;2022-11-15T11:37:54;1.57;;;1.30;;
14141;SDS011;7151;52.246;4.820;2022-11-15T11:48:42;2.33;;;1.33;;
14141;SDS011;7151;52.246;4.820;2022-11-15T11:51:21;2.77;;;1.40;;
14141;SDS011;7151;52.246;4.820;2022-11-15T11:53:58;3.17;;;1.47;;
14141;SDS011;7151;52.246;4.820;2022-11-15T11:56:39;3.80;;;1.60;;
14141;SDS011;7151;52.246;4.820;2022-11-15T12:02:12;1.77;;;1.03;;
14141;SDS011;7151;52.246;4.820;2022-11-15T12:04:44;3.03;;;1.20;;
14141;SDS011;7151;52.246;4.820;2022-11-15T12:07:15;1.60;;;1.23;;
14141;SDS011;7151;52.246;4.820;2022-11-15T12:09:59;4.20;;;1.10;;
14141;SDS011;7151;52.246;4.820;2022-11-15T12:12:49;3.67;;;1.63;;
14141;SDS011;7151;52.246;4.820;2022-11-15T12:15:52;4.37;;;1.20;;
14141;SDS011;7151;52.246;4.820;2022-11-15T12:18:24;2.60;;;1.10;;
14141;SDS011;7151;52.246;4.820;2022-11-15T12:20:52;1.87;;;1.10;;
14141;SDS011;7151;52.246;4.820;2022-11-15T12:23:27;2.40;;;1.23;;
14141;SDS011;7151;52.246;4.820;2022-11-15T12:26:06;1.90;;;1.00;;
14141;SDS011;7151;52.246;4.820;2022-11-15T12:28:45;2.07;;;0.97;;
14141;SDS011;7151;52.246;4.820;2022-11-15T12:31:43;1.43;;;0.77;;
14141;SDS011;7151;52.246;4.820;2022-11-15T12:36:44;1.93;;;1.00;;
14141;SDS011;7151;52.246;4.820;2022-11-15T12:39:11;1.20;;;0.70;;
14141;SDS011;7151;52.246;4.820;2022-11-15T12:41:39;5.73;;;0.90;;
14141;SDS011;7151;52.246;4.820;2022-11-15T12:44:13;0.87;;;0.80;;
14141;SDS011;7151;52.246;4.820;2022-11-15T13:02:32;3.10;;;0.80;;
14141;SDS011;7151;52.246;4.820;2022-11-15T13:18:18;2.10;;;0.60;;
14141;SDS011;7151;52.246;4.820;2022-11-15T13:20:50;3.13;;;0.60;;
14141;SDS011;7151;52.246;4.820;2022-11-15T13:23:16;0.93;;;0.60;;
14141;SDS011;7151;52.246;4.820;2022-11-15T13:28:47;1.47;;;0.97;;
14141;SDS011;7151;52.246;4.820;2022-11-15T13:31:24;3.53;;;1.10;;
14141;SDS011;7151;52.246;4.820;2022-11-15T13:33:57;1.20;;;0.57;;
14141;SDS011;7151;52.246;4.820;2022-11-15T13:36:35;2.17;;;0.70;;
14141;SDS011;7151;52.246;4.820;2022-11-15T13:39:05;3.03;;;1.00;;
14141;SDS011;7151;52.246;4.820;2022-11-15T13:41:45;2.03;;;0.70;;
14141;SDS011;7151;52.246;4.820;2022-11-15T13:44:54;1.70;;;0.50;;
14141;SDS011;7151;52.246;4.820;2022-11-15T13:47:19;1.07;;;0.67;;
14141;SDS011;7151;52.246;4.820;2022-11-15T13:49:44;1.87;;;0.63;;
14141;SDS011;7151;52.246;4.820;2022-11-15T13:52:11;2.80;;;0.53;;
14141;SDS011;7151;52.246;4.820;2022-11-15T13:57:32;1.77;;;0.80;;
14141;SDS011;7151;52.246;4.820;2022-11-15T14:00:24;3.80;;;0.83;;
14141;SDS011;7151;52.246;4.820;2022-11-15T14:05:41;1.23;;;0.53;;
14141;SDS011;7151;52.246;4.820;2022-11-15T14:10:45;0.63;;;0.50;;
14141;SDS011;7151;52.246;4.820;2022-11-15T14:13:29;1.90;;;0.97;;
14141;SDS011;7151;52.246;4.820;2022-11-15T14:18:47;3.20;;;1.20;;
14141;SDS011;7151;52.246;4.820;2022-11-15T14:21:14;2.67;;;1.27;;
14141;SDS011;7151;52.246;4.820;2022-11-15T14:23:40;1.10;;;0.63;;
14141;SDS011;7151;52.246;4.820;2022-11-15T14:26:10;1.03;;;0.70;;
14141;SDS011;7151;52.246;4.820;2022-11-15T14:28:57;3.47;;;0.80;;
14141;SDS011;7151;52.246;4.820;2022-11-15T14:31:53;3.27;;;0.97;;
14141;SDS011;7151;52.246;4.820;2022-11-15T14:34:31;2.13;;;0.77;;
14141;SDS011;7151;52.246;4.820;2022-11-15T14:36:57;4.27;;;0.90;;
14141;SDS011;7151;52.246;4.820;2022-11-15T14:39:23;0.87;;;0.70;;
14141;SDS011;7151;52.246;4.820;2022-11-15T14:41:50;1.10;;;0.60;;
14141;SDS011;7151;52.246;4.820;2022-11-15T14:44:15;0.97;;;0.70;;
14141;SDS011;7151;52.246;4.820;2022-11-15T14:46:43;1.17;;;0.80;;
14141;SDS011;7151;52.246;4.820;2022-11-15T14:49:09;3.37;;;0.80;;
14141;SDS011;7151;52.246;4.820;2022-11-15T14:51:34;2.57;;;1.00;;
14141;SDS011;7151;52.246;4.820;2022-11-15T14:54:00;3.03;;;0.80;;
14141;SDS011;7151;52.246;4.820;2022-11-15T14:56:26;3.73;;;0.80;;
14141;SDS011;7151;52.246;4.820;2022-11-15T14:58:51;1.73;;;0.77;;
14141;SDS011;7151;52.246;4.820;2022-11-15T15:01:22;1.30;;;0.80;;
14141;SDS011;7151;52.246;4.820;2022-11-15T15:03:50;1.83;;;0.60;;
14141;SDS011;7151;52.246;4.820;2022-11-15T15:06:23;1.83;;;1.07;;
14141;SDS011;7151;52.246;4.820;2022-11-15T15:08:49;4.07;;;0.87;;
14141;SDS011;7151;52.246;4.820;2022-11-15T15:11:26;1.53;;;1.00;;
14141;SDS011;7151;52.246;4.820;2022-11-15T15:13:53;2.03;;;0.73;;
14141;SDS011;7151;52.246;4.820;2022-11-15T15:16:22;1.23;;;0.70;;
14141;SDS011;7151;52.246;4.820;2022-11-15T15:18:48;1.63;;;0.87;;
14141;SDS011;7151;52.246;4.820;2022-11-15T15:21:17;4.27;;;0.90;;
14141;SDS011;7151;52.246;4.820;2022-11-15T15:23:53;3.20;;;1.03;;
14141;SDS011;7151;52.246;4.820;2022-11-15T15:26:19;1.97;;;1.00;;
14141;SDS011;7151;52.246;4.820;2022-11-15T15:28:45;3.33;;;1.00;;
14141;SDS011;7151;52.246;4.820;2022-11-15T15:31:13;3.07;;;0.70;;
14141;SDS011;7151;52.246;4.820;2022-11-15T15:33:39;2.03;;;1.10;;
14141;SDS011;7151;52.246;4.820;2022-11-15T15:36:07;2.13;;;0.93;;
14141;SDS011;7151;52.246;4.820;2022-11-15T15:38:38;3.23;;;1.00;;
14141;SDS011;7151;52.246;4.820;2022-11-15T15:41:10;1.60;;;0.83;;
14141;SDS011;7151;52.246;4.820;2022-11-15T15:43:36;1.87;;;1.13;;
14141;SDS011;7151;52.246;4.820;2022-11-15T15:46:02;3.07;;;0.70;;
14141;SDS011;7151;52.246;4.820;2022-11-15T15:48:27;4.37;;;1.03;;
14141;SDS011;7151;52.246;4.820;2022-11-15T15:50:53;1.10;;;0.70;;
14141;SDS011;7151;52.246;4.820;2022-11-15T15:53:19;3.53;;;1.03;;
14141;SDS011;7151;52.246;4.820;2022-11-15T15:55:44;3.17;;;1.10;;
14141;SDS011;7151;52.246;4.820;2022-11-15T15:58:10;1.20;;;0.90;;
14141;SDS011;7151;52.246;4.820;2022-11-15T16:00:36;3.47;;;0.87;;
14141;SDS011;7151;52.246;4.820;2022-11-15T16:03:02;1.20;;;0.90;;
14141;SDS011;7151;52.246;4.820;2022-11-15T16:05:28;1.70;;;0.80;;
14141;SDS011;7151;52.246;4.820;2022-11-15T16:07:54;1.33;;;0.90;;
14141;SDS011;7151;52.246;4.820;2022-11-15T16:10:23;1.53;;;0.80;;
14141;SDS011;7151;52.246;4.820;2022-11-15T16:12:54;3.77;;;1.03;;
14141;SDS011;7151;52.246;4.820;2022-11-15T16:15:21;1.10;;;0.70;;
14141;SDS011;7151;52.246;4.820;2022-11-15T16:17:49;2.50;;;0.80;;
14141;SDS011;7151;52.246;4.820;2022-11-15T16:20:22;2.30;;;1.20;;
14141;SDS011;7151;52.246;4.820;2022-11-15T16:22:48;1.97;;;0.70;;
14141;SDS011;7151;52.246;4.820;2022-11-15T16:25:14;3.57;;;1.10;;
14141;SDS011;7151;52.246;4.820;2022-11-15T16:27:39;1.27;;;0.80;;
14141;SDS011;7151;52.246;4.820;2022-11-15T16:30:19;3.17;;;1.33;;
14141;SDS011;7151;52.246;4.820;2022-11-15T16:32:46;1.00;;;0.70;;
14141;SDS011;7151;52.246;4.820;2022-11-15T16:35:12;2.13;;;1.10;;
14141;SDS011;7151;52.246;4.820;2022-11-15T16:37:39;2.17;;;0.87;;
14141;SDS011;7151;52.246;4.820;2022-11-15T16:40:27;1.83;;;0.77;;
14141;SDS011;7151;52.246;4.820;2022-11-15T16:42:54;4.53;;;1.03;;
14141;SDS011;7151;52.246;4.820;2022-11-15T16:45:20;1.27;;;1.00;;
14141;SDS011;7151;52.246;4.820;2022-11-15T16:47:46;2.53;;;1.17;;
14141;SDS011;7151;52.246;4.820;2022-11-15T16:50:17;1.70;;;0.90;;
14141;SDS011;7151;52.246;4.820;2022-11-15T16:52:56;4.83;;;1.37;;
14141;SDS011;7151;52.246;4.820;2022-11-15T16:55:23;6.23;;;1.07;;
14141;SDS011;7151;52.246;4.820;2022-11-15T16:57:52;3.07;;;1.10;;
14141;SDS011;7151;52.246;4.820;2022-11-15T17:00:18;2.43;;;0.90;;
14141;SDS011;7151;52.246;4.820;2022-11-15T17:02:45;6.27;;;0.90;;
14141;SDS011;7151;52.246;4.820;2022-11-15T17:05:12;1.93;;;0.97;;